sensor_id;sensor_type;location;lat;lon;timestamp;temperature;humidity
66586;SHT30;53444;45.822;16.092;2023-04-03T00:00:06;6.85;68.68
66586;SHT30;53444;45.822;16.092;2023-04-03T00:02:33;6.83;68.85
66586;SHT30;53444;45.822;16.092;2023-04-03T00:05:01;6.80;68.71
66586;SHT30;53444;45.822;16.092;2023-04-03T00:07:28;6.88;68.42
66586;SHT30;53444;45.822;16.092;2023-04-03T00:09:54;6.73;68.74
66586;SHT30;53444;45.822;16.092;2023-04-03T00:12:21;6.74;68.49
66586;SHT30;53444;45.822;16.092;2023-04-03T00:14:48;6.66;69.06
66586;SHT30;53444;45.822;16.092;2023-04-03T00:17:15;6.61;68.78
66586;SHT30;53444;45.822;16.092;2023-04-03T00:19:41;6.71;68.64
66586;SHT30;53444;45.822;16.092;2023-04-03T00:22:09;6.61;69.26
66586;SHT30;53444;45.822;16.092;2023-04-03T00:24:36;6.74;68.64
66586;SHT30;53444;45.822;16.092;2023-04-03T00:27:03;6.78;68.69
66586;SHT30;53444;45.822;16.092;2023-04-03T00:29:29;6.73;68.36
66586;SHT30;53444;45.822;16.092;2023-04-03T00:31:56;6.67;68.69
66586;SHT30;53444;45.822;16.092;2023-04-03T00:34:23;6.64;68.88
66586;SHT30;53444;45.822;16.092;2023-04-03T00:36:51;6.56;68.64
66586;SHT30;53444;45.822;16.092;2023-04-03T00:39:19;6.64;68.77
66586;SHT30;53444;45.822;16.092;2023-04-03T00:41:46;6.47;69.26
66586;SHT30;53444;45.822;16.092;2023-04-03T00:44:20;6.46;69.13
66586;SHT30;53444;45.822;16.092;2023-04-03T00:46:47;6.50;69.34
66586;SHT30;53444;45.822;16.092;2023-04-03T00:49:14;6.56;69.20
66586;SHT30;53444;45.822;16.092;2023-04-03T00:51:41;6.53;69.36
66586;SHT30;53444;45.822;16.092;2023-04-03T00:54:08;6.56;69.47
66586;SHT30;53444;45.822;16.092;2023-04-03T00:56:36;6.57;69.31
66586;SHT30;53444;45.822;16.092;2023-04-03T00:59:06;6.63;68.81
66586;SHT30;53444;45.822;16.092;2023-04-03T01:01:35;6.60;69.17
66586;SHT30;53444;45.822;16.092;2023-04-03T01:04:03;6.48;68.80
66586;SHT30;53444;45.822;16.092;2023-04-03T01:06:34;6.41;68.78
66586;SHT30;53444;45.822;16.092;2023-04-03T01:09:03;6.50;69.02
66586;SHT30;53444;45.822;16.092;2023-04-03T01:11:30;6.47;68.70
66586;SHT30;53444;45.822;16.092;2023-04-03T01:13:58;6.34;68.83
66586;SHT30;53444;45.822;16.092;2023-04-03T01:16:27;6.37;68.91
66586;SHT30;53444;45.822;16.092;2023-04-03T01:18:56;6.38;68.80
66586;SHT30;53444;45.822;16.092;2023-04-03T01:21:52;6.37;68.74
66586;SHT30;53444;45.822;16.092;2023-04-03T01:24:33;6.37;68.69
66586;SHT30;53444;45.822;16.092;2023-04-03T01:27:01;6.37;68.83
66586;SHT30;53444;45.822;16.092;2023-04-03T01:29:30;6.25;69.17
66586;SHT30;53444;45.822;16.092;2023-04-03T01:31:59;6.36;68.34
66586;SHT30;53444;45.822;16.092;2023-04-03T01:34:27;6.30;68.31
66586;SHT30;53444;45.822;16.092;2023-04-03T01:36:55;6.22;68.35
66586;SHT30;53444;45.822;16.092;2023-04-03T01:39:22;6.19;68.65
66586;SHT30;53444;45.822;16.092;2023-04-03T01:41:48;6.26;68.64
66586;SHT30;53444;45.822;16.092;2023-04-03T01:44:15;6.23;67.93
66586;SHT30;53444;45.822;16.092;2023-04-03T01:46:42;6.25;68.43
66586;SHT30;53444;45.822;16.092;2023-04-03T01:49:10;6.25;67.17
66586;SHT30;53444;45.822;16.092;2023-04-03T01:51:37;6.16;67.33
66586;SHT30;53444;45.822;16.092;2023-04-03T01:54:04;6.10;67.12
66586;SHT30;53444;45.822;16.092;2023-04-03T01:56:30;6.13;66.65
66586;SHT30;53444;45.822;16.092;2023-04-03T01:58:57;6.16;66.70
66586;SHT30;53444;45.822;16.092;2023-04-03T02:01:24;6.16;67.18
66586;SHT30;53444;45.822;16.092;2023-04-03T02:03:51;6.13;67.37
66586;SHT30;53444;45.822;16.092;2023-04-03T02:06:19;6.10;66.68
66586;SHT30;53444;45.822;16.092;2023-04-03T02:08:46;5.99;66.92
66586;SHT30;53444;45.822;16.092;2023-04-03T02:11:13;5.93;66.33
66586;SHT30;53444;45.822;16.092;2023-04-03T02:13:40;6.02;66.98
66586;SHT30;53444;45.822;16.092;2023-04-03T02:16:08;5.92;66.35
66586;SHT30;53444;45.822;16.092;2023-04-03T02:18:35;5.93;66.64
66586;SHT30;53444;45.822;16.092;2023-04-03T02:21:02;6.07;66.01
66586;SHT30;53444;45.822;16.092;2023-04-03T02:23:30;6.03;66.06
66586;SHT30;53444;45.822;16.092;2023-04-03T02:26:06;5.96;66.00
66586;SHT30;53444;45.822;16.092;2023-04-03T02:28:34;5.98;66.07
66586;SHT30;53444;45.822;16.092;2023-04-03T02:31:01;6.01;65.95
66586;SHT30;53444;45.822;16.092;2023-04-03T02:33:28;6.05;65.27
66586;SHT30;53444;45.822;16.092;2023-04-03T02:35:55;6.03;65.60
66586;SHT30;53444;45.822;16.092;2023-04-03T02:38:22;5.96;66.04
66586;SHT30;53444;45.822;16.092;2023-04-03T02:40:51;5.82;65.86
66586;SHT30;53444;45.822;16.092;2023-04-03T02:43:17;5.84;66.05
66586;SHT30;53444;45.822;16.092;2023-04-03T02:45:44;5.91;65.92
66586;SHT30;53444;45.822;16.092;2023-04-03T02:48:11;5.89;65.39
66586;SHT30;53444;45.822;16.092;2023-04-03T02:50:37;5.85;65.71
66586;SHT30;53444;45.822;16.092;2023-04-03T02:53:04;5.91;65.46
66586;SHT30;53444;45.822;16.092;2023-04-03T02:55:31;6.01;64.94
66586;SHT30;53444;45.822;16.092;2023-04-03T02:57:59;5.98;65.03
66586;SHT30;53444;45.822;16.092;2023-04-03T03:03:01;6.02;64.68
66586;SHT30;53444;45.822;16.092;2023-04-03T03:05:27;6.07;64.81
66586;SHT30;53444;45.822;16.092;2023-04-03T03:07:54;6.02;65.04
66586;SHT30;53444;45.822;16.092;2023-04-03T03:10:21;6.03;64.99
66586;SHT30;53444;45.822;16.092;2023-04-03T03:12:48;6.05;64.84
66586;SHT30;53444;45.822;16.092;2023-04-03T03:15:16;5.99;65.39
66586;SHT30;53444;45.822;16.092;2023-04-03T03:17:44;5.96;65.66
66586;SHT30;53444;45.822;16.092;2023-04-03T03:20:12;5.99;65.21
66586;SHT30;53444;45.822;16.092;2023-04-03T03:22:40;6.01;64.96
66586;SHT30;53444;45.822;16.092;2023-04-03T03:25:08;6.07;65.19
66586;SHT30;53444;45.822;16.092;2023-04-03T03:27:34;6.06;65.55
66586;SHT30;53444;45.822;16.092;2023-04-03T03:30:01;5.99;65.42
66586;SHT30;53444;45.822;16.092;2023-04-03T03:32:29;6.05;65.44
66586;SHT30;53444;45.822;16.092;2023-04-03T03:34:56;6.15;65.03
66586;SHT30;53444;45.822;16.092;2023-04-03T03:37:22;6.13;65.21
66586;SHT30;53444;45.822;16.092;2023-04-03T03:39:49;6.15;65.53
66586;SHT30;53444;45.822;16.092;2023-04-03T03:42:16;6.20;64.95
66586;SHT30;53444;45.822;16.092;2023-04-03T03:44:43;6.23;64.93
66586;SHT30;53444;45.822;16.092;2023-04-03T03:47:09;6.29;65.43
66586;SHT30;53444;45.822;16.092;2023-04-03T03:49:37;6.22;65.39
66586;SHT30;53444;45.822;16.092;2023-04-03T03:52:04;6.29;65.21
66586;SHT30;53444;45.822;16.092;2023-04-03T03:54:31;6.36;65.10
66586;SHT30;53444;45.822;16.092;2023-04-03T03:56:57;6.37;64.71
66586;SHT30;53444;45.822;16.092;2023-04-03T03:59:24;6.43;64.83
66586;SHT30;53444;45.822;16.092;2023-04-03T04:01:51;6.46;64.69
66586;SHT30;53444;45.822;16.092;2023-04-03T04:04:18;6.47;65.17
66586;SHT30;53444;45.822;16.092;2023-04-03T04:06:46;6.53;64.93
66586;SHT30;53444;45.822;16.092;2023-04-03T04:09:13;6.53;65.30
66586;SHT30;53444;45.822;16.092;2023-04-03T04:11:39;6.47;64.97
66586;SHT30;53444;45.822;16.092;2023-04-03T04:14:06;6.46;64.97
66586;SHT30;53444;45.822;16.092;2023-04-03T04:16:35;6.54;65.06
66586;SHT30;53444;45.822;16.092;2023-04-03T04:19:02;6.54;64.97
66586;SHT30;53444;45.822;16.092;2023-04-03T04:21:29;6.56;64.40
66586;SHT30;53444;45.822;16.092;2023-04-03T04:23:57;6.61;64.83
66586;SHT30;53444;45.822;16.092;2023-04-03T04:26:23;6.60;64.67
66586;SHT30;53444;45.822;16.092;2023-04-03T04:28:50;6.64;64.81
66586;SHT30;53444;45.822;16.092;2023-04-03T04:31:17;6.67;64.69
66586;SHT30;53444;45.822;16.092;2023-04-03T04:33:43;6.67;64.90
66586;SHT30;53444;45.822;16.092;2023-04-03T04:36:11;6.71;64.69
66586;SHT30;53444;45.822;16.092;2023-04-03T04:38:41;6.71;65.35
66586;SHT30;53444;45.822;16.092;2023-04-03T04:41:10;6.80;64.79
66586;SHT30;53444;45.822;16.092;2023-04-03T04:43:38;6.78;64.68
66586;SHT30;53444;45.822;16.092;2023-04-03T04:46:12;6.84;64.52
66586;SHT30;53444;45.822;16.092;2023-04-03T04:48:55;6.75;64.95
66586;SHT30;53444;45.822;16.092;2023-04-03T04:51:23;6.81;64.94
66586;SHT30;53444;45.822;16.092;2023-04-03T04:54:03;6.83;64.64
66586;SHT30;53444;45.822;16.092;2023-04-03T04:56:42;6.78;64.92
66586;SHT30;53444;45.822;16.092;2023-04-03T04:59:21;6.78;65.29
66586;SHT30;53444;45.822;16.092;2023-04-03T05:02:11;6.78;65.01
66586;SHT30;53444;45.822;16.092;2023-04-03T05:04:56;6.84;65.28
66586;SHT30;53444;45.822;16.092;2023-04-03T05:07:33;6.81;64.94
66586;SHT30;53444;45.822;16.092;2023-04-03T05:10:12;6.78;65.20
66586;SHT30;53444;45.822;16.092;2023-04-03T05:12:54;6.87;65.23
66586;SHT30;53444;45.822;16.092;2023-04-03T05:15:22;6.91;65.04
66586;SHT30;53444;45.822;16.092;2023-04-03T05:17:52;6.91;64.83
66586;SHT30;53444;45.822;16.092;2023-04-03T05:20:23;7.04;64.66
66586;SHT30;53444;45.822;16.092;2023-04-03T05:23:12;7.07;64.55
66586;SHT30;53444;45.822;16.092;2023-04-03T05:25:44;7.01;64.84
66586;SHT30;53444;45.822;16.092;2023-04-03T05:28:14;7.14;64.67
66586;SHT30;53444;45.822;16.092;2023-04-03T05:30:41;7.18;65.85
66586;SHT30;53444;45.822;16.092;2023-04-03T05:33:07;7.22;63.52
66586;SHT30;53444;45.822;16.092;2023-04-03T05:35:35;7.35;63.65
66586;SHT30;53444;45.822;16.092;2023-04-03T05:38:05;7.38;63.96
66586;SHT30;53444;45.822;16.092;2023-04-03T05:40:35;7.42;63.34
66586;SHT30;53444;45.822;16.092;2023-04-03T05:43:05;7.56;63.70
66586;SHT30;53444;45.822;16.092;2023-04-03T05:45:34;7.66;63.57
66586;SHT30;53444;45.822;16.092;2023-04-03T05:48:01;7.76;63.66
66586;SHT30;53444;45.822;16.092;2023-04-03T05:50:28;7.91;62.96
66586;SHT30;53444;45.822;16.092;2023-04-03T05:52:57;8.00;62.76
66586;SHT30;53444;45.822;16.092;2023-04-03T05:55:24;8.02;62.72
66586;SHT30;53444;45.822;16.092;2023-04-03T05:57:51;8.05;62.00
66586;SHT30;53444;45.822;16.092;2023-04-03T06:00:19;8.11;61.61
66586;SHT30;53444;45.822;16.092;2023-04-03T06:02:50;8.12;61.94
66586;SHT30;53444;45.822;16.092;2023-04-03T06:05:22;8.24;62.06
66586;SHT30;53444;45.822;16.092;2023-04-03T06:07:49;8.28;61.16
66586;SHT30;53444;45.822;16.092;2023-04-03T06:10:17;8.37;61.47
66586;SHT30;53444;45.822;16.092;2023-04-03T06:12:45;8.38;61.35
66586;SHT30;53444;45.822;16.092;2023-04-03T06:15:24;8.35;60.78
66586;SHT30;53444;45.822;16.092;2023-04-03T06:18:09;8.38;60.98
66586;SHT30;53444;45.822;16.092;2023-04-03T06:20:49;8.45;61.21
66586;SHT30;53444;45.822;16.092;2023-04-03T06:23:45;8.41;61.31
66586;SHT30;53444;45.822;16.092;2023-04-03T06:26:36;8.30;61.91
66586;SHT30;53444;45.822;16.092;2023-04-03T06:29:24;8.12;61.25
66586;SHT30;53444;45.822;16.092;2023-04-03T06:31:52;8.00;62.12
66586;SHT30;53444;45.822;16.092;2023-04-03T06:34:22;8.00;62.04
66586;SHT30;53444;45.822;16.092;2023-04-03T06:36:50;8.04;61.40
66586;SHT30;53444;45.822;16.092;2023-04-03T06:39:19;8.00;61.67
66586;SHT30;53444;45.822;16.092;2023-04-03T06:41:48;8.11;62.29
66586;SHT30;53444;45.822;16.092;2023-04-03T06:44:21;8.12;61.63
66586;SHT30;53444;45.822;16.092;2023-04-03T06:46:49;8.18;61.48
66586;SHT30;53444;45.822;16.092;2023-04-03T06:49:17;8.10;61.37
66586;SHT30;53444;45.822;16.092;2023-04-03T06:51:46;8.15;61.09
66586;SHT30;53444;45.822;16.092;2023-04-03T06:54:13;8.14;60.71
66586;SHT30;53444;45.822;16.092;2023-04-03T06:56:40;8.05;61.58
66586;SHT30;53444;45.822;16.092;2023-04-03T06:59:17;8.11;62.42
66586;SHT30;53444;45.822;16.092;2023-04-03T07:01:51;8.27;61.39
66586;SHT30;53444;45.822;16.092;2023-04-03T07:04:22;8.28;61.15
66586;SHT30;53444;45.822;16.092;2023-04-03T07:07:02;8.41;61.58
66586;SHT30;53444;45.822;16.092;2023-04-03T07:09:29;8.49;61.18
66586;SHT30;53444;45.822;16.092;2023-04-03T07:11:56;8.44;60.90
66586;SHT30;53444;45.822;16.092;2023-04-03T07:14:24;8.37;61.32
66586;SHT30;53444;45.822;16.092;2023-04-03T07:16:51;8.49;61.11
66586;SHT30;53444;45.822;16.092;2023-04-03T07:19:21;8.37;61.62
66586;SHT30;53444;45.822;16.092;2023-04-03T07:21:50;8.51;61.44
66586;SHT30;53444;45.822;16.092;2023-04-03T07:24:18;8.56;61.35
66586;SHT30;53444;45.822;16.092;2023-04-03T07:26:49;8.49;61.44
66586;SHT30;53444;45.822;16.092;2023-04-03T07:29:26;8.40;61.74
66586;SHT30;53444;45.822;16.092;2023-04-03T07:31:55;8.59;61.03
66586;SHT30;53444;45.822;16.092;2023-04-03T07:34:23;8.48;61.09
66586;SHT30;53444;45.822;16.092;2023-04-03T07:36:50;8.53;61.33
66586;SHT30;53444;45.822;16.092;2023-04-03T07:39:21;8.46;61.09
66586;SHT30;53444;45.822;16.092;2023-04-03T07:41:48;8.41;61.20
66586;SHT30;53444;45.822;16.092;2023-04-03T07:44:16;8.37;61.03
66586;SHT30;53444;45.822;16.092;2023-04-03T07:46:45;8.55;60.67
66586;SHT30;53444;45.822;16.092;2023-04-03T07:49:36;8.66;60.33
66586;SHT30;53444;45.822;16.092;2023-04-03T07:52:06;8.79;59.97
66586;SHT30;53444;45.822;16.092;2023-04-03T07:54:35;8.79;59.33
66586;SHT30;53444;45.822;16.092;2023-04-03T07:57:03;8.97;59.21
66586;SHT30;53444;45.822;16.092;2023-04-03T07:59:30;8.76;58.59
66586;SHT30;53444;45.822;16.092;2023-04-03T08:01:58;8.73;59.06
66586;SHT30;53444;45.822;16.092;2023-04-03T08:04:25;8.87;58.29
66586;SHT30;53444;45.822;16.092;2023-04-03T08:06:53;8.68;58.16
66586;SHT30;53444;45.822;16.092;2023-04-03T08:09:20;8.96;58.28
66586;SHT30;53444;45.822;16.092;2023-04-03T08:11:49;9.09;58.11
66586;SHT30;53444;45.822;16.092;2023-04-03T08:14:19;9.16;57.28
66586;SHT30;53444;45.822;16.092;2023-04-03T08:16:48;9.09;57.96
66586;SHT30;53444;45.822;16.092;2023-04-03T08:19:17;9.20;57.24
66586;SHT30;53444;45.822;16.092;2023-04-03T08:21:44;9.27;57.03
66586;SHT30;53444;45.822;16.092;2023-04-03T08:24:12;9.57;57.13
66586;SHT30;53444;45.822;16.092;2023-04-03T08:26:40;9.79;57.12
66586;SHT30;53444;45.822;16.092;2023-04-03T08:29:09;9.84;56.26
66586;SHT30;53444;45.822;16.092;2023-04-03T08:31:36;9.67;56.21
66586;SHT30;53444;45.822;16.092;2023-04-03T08:34:03;9.73;56.45
66586;SHT30;53444;45.822;16.092;2023-04-03T08:36:31;9.88;56.76
66586;SHT30;53444;45.822;16.092;2023-04-03T08:39:01;9.88;55.97
66586;SHT30;53444;45.822;16.092;2023-04-03T08:41:41;9.98;55.93
66586;SHT30;53444;45.822;16.092;2023-04-03T08:44:31;10.17;56.43
66586;SHT30;53444;45.822;16.092;2023-04-03T08:47:18;10.12;56.43
66586;SHT30;53444;45.822;16.092;2023-04-03T08:49:51;10.19;55.50
66586;SHT30;53444;45.822;16.092;2023-04-03T08:52:21;10.01;55.18
66586;SHT30;53444;45.822;16.092;2023-04-03T08:54:55;10.36;55.97
66586;SHT30;53444;45.822;16.092;2023-04-03T08:57:29;10.32;55.26
66586;SHT30;53444;45.822;16.092;2023-04-03T09:00:02;10.08;54.64
66586;SHT30;53444;45.822;16.092;2023-04-03T09:02:46;10.06;55.90
66586;SHT30;53444;45.822;16.092;2023-04-03T09:05:19;10.64;55.79
66586;SHT30;53444;45.822;16.092;2023-04-03T09:07:55;10.74;54.26
66586;SHT30;53444;45.822;16.092;2023-04-03T09:10:29;10.29;53.38
66586;SHT30;53444;45.822;16.092;2023-04-03T09:13:03;10.39;55.03
66586;SHT30;53444;45.822;16.092;2023-04-03T09:15:37;10.56;54.10
66586;SHT30;53444;45.822;16.092;2023-04-03T09:18:13;10.80;54.74
66586;SHT30;53444;45.822;16.092;2023-04-03T09:20:56;10.84;54.07
66586;SHT30;53444;45.822;16.092;2023-04-03T09:23:36;10.45;55.58
66586;SHT30;53444;45.822;16.092;2023-04-03T09:26:16;10.03;55.82
66586;SHT30;53444;45.822;16.092;2023-04-03T09:28:49;9.67;55.78
66586;SHT30;53444;45.822;16.092;2023-04-03T09:31:24;9.62;56.37
66586;SHT30;53444;45.822;16.092;2023-04-03T09:33:54;10.01;55.94
66586;SHT30;53444;45.822;16.092;2023-04-03T09:36:41;10.45;54.24
66586;SHT30;53444;45.822;16.092;2023-04-03T09:39:12;10.35;54.82
66586;SHT30;53444;45.822;16.092;2023-04-03T09:41:40;10.32;54.02
66586;SHT30;53444;45.822;16.092;2023-04-03T09:44:22;10.13;53.75
66586;SHT30;53444;45.822;16.092;2023-04-03T09:46:53;9.88;54.89
66586;SHT30;53444;45.822;16.092;2023-04-03T09:49:24;9.67;55.40
66586;SHT30;53444;45.822;16.092;2023-04-03T09:52:18;9.31;56.49
66586;SHT30;53444;45.822;16.092;2023-04-03T09:54:49;9.20;57.17
66586;SHT30;53444;45.822;16.092;2023-04-03T09:57:16;9.04;57.78
66586;SHT30;53444;45.822;16.092;2023-04-03T09:59:57;9.13;57.85
66586;SHT30;53444;45.822;16.092;2023-04-03T10:02:35;9.55;56.63
66586;SHT30;53444;45.822;16.092;2023-04-03T10:05:11;9.59;56.77
66586;SHT30;53444;45.822;16.092;2023-04-03T10:08:08;9.79;56.90
66586;SHT30;53444;45.822;16.092;2023-04-03T10:10:41;9.88;56.01
66586;SHT30;53444;45.822;16.092;2023-04-03T10:13:12;9.92;55.53
66586;SHT30;53444;45.822;16.092;2023-04-03T10:15:43;10.03;55.97
66586;SHT30;53444;45.822;16.092;2023-04-03T10:18:27;10.28;53.65
66586;SHT30;53444;45.822;16.092;2023-04-03T10:21:04;10.53;52.87
66586;SHT30;53444;45.822;16.092;2023-04-03T10:23:41;10.66;52.24
66586;SHT30;53444;45.822;16.092;2023-04-03T10:26:23;10.45;52.08
66586;SHT30;53444;45.822;16.092;2023-04-03T10:28:59;10.01;52.96
66586;SHT30;53444;45.822;16.092;2023-04-03T10:31:49;9.98;53.79
66586;SHT30;53444;45.822;16.092;2023-04-03T10:34:23;9.96;53.38
66586;SHT30;53444;45.822;16.092;2023-04-03T10:36:57;9.88;53.06
66586;SHT30;53444;45.822;16.092;2023-04-03T10:39:33;9.95;52.09
66586;SHT30;53444;45.822;16.092;2023-04-03T10:42:09;10.06;50.87
66586;SHT30;53444;45.822;16.092;2023-04-03T10:45:00;10.81;50.86
66586;SHT30;53444;45.822;16.092;2023-04-03T10:47:34;11.15;49.14
66586;SHT30;53444;45.822;16.092;2023-04-03T10:50:15;11.58;49.66
66586;SHT30;53444;45.822;16.092;2023-04-03T10:52:55;11.15;49.53
66586;SHT30;53444;45.822;16.092;2023-04-03T10:55:34;11.07;48.89
66586;SHT30;53444;45.822;16.092;2023-04-03T10:58:15;11.29;49.25
66586;SHT30;53444;45.822;16.092;2023-04-03T11:00:49;10.78;50.42
66586;SHT30;53444;45.822;16.092;2023-04-03T11:03:30;10.94;50.64
66586;SHT30;53444;45.822;16.092;2023-04-03T11:06:07;11.11;50.92
66586;SHT30;53444;45.822;16.092;2023-04-03T11:08:39;11.49;50.49
66586;SHT30;53444;45.822;16.092;2023-04-03T11:11:22;11.80;49.61
66586;SHT30;53444;45.822;16.092;2023-04-03T11:13:55;11.80;49.51
66586;SHT30;53444;45.822;16.092;2023-04-03T11:16:36;12.36;50.58
66586;SHT30;53444;45.822;16.092;2023-04-03T11:19:16;11.38;50.21
66586;SHT30;53444;45.822;16.092;2023-04-03T11:21:56;11.25;51.25
66586;SHT30;53444;45.822;16.092;2023-04-03T11:24:32;10.35;52.20
66586;SHT30;53444;45.822;16.092;2023-04-03T11:27:08;9.79;53.28
66586;SHT30;53444;45.822;16.092;2023-04-03T11:29:44;9.79;53.36
66586;SHT30;53444;45.822;16.092;2023-04-03T11:32:52;9.65;53.33
66586;SHT30;53444;45.822;16.092;2023-04-03T11:35:21;10.06;53.14
66586;SHT30;53444;45.822;16.092;2023-04-03T11:37:54;10.22;52.33
66586;SHT30;53444;45.822;16.092;2023-04-03T11:40:26;10.45;52.29
66586;SHT30;53444;45.822;16.092;2023-04-03T11:43:05;10.73;51.94
66586;SHT30;53444;45.822;16.092;2023-04-03T11:45:46;10.67;52.22
66586;SHT30;53444;45.822;16.092;2023-04-03T11:51:42;10.40;53.07
66586;SHT30;53444;45.822;16.092;2023-04-03T11:54:48;10.16;52.84
66586;SHT30;53444;45.822;16.092;2023-04-03T11:57:44;9.71;53.56
66586;SHT30;53444;45.822;16.092;2023-04-03T12:00:47;9.78;53.86
66586;SHT30;53444;45.822;16.092;2023-04-03T12:09:29;9.73;53.84
66586;SHT30;53444;45.822;16.092;2023-04-03T12:19:24;10.13;51.00
66586;SHT30;53444;45.822;16.092;2023-04-03T12:22:08;11.28;48.40
66586;SHT30;53444;45.822;16.092;2023-04-03T12:24:36;11.48;48.59
66586;SHT30;53444;45.822;16.092;2023-04-03T12:27:26;10.98;48.58
66586;SHT30;53444;45.822;16.092;2023-04-03T12:29:58;10.67;49.00
66586;SHT30;53444;45.822;16.092;2023-04-03T12:32:36;10.42;50.73
66586;SHT30;53444;45.822;16.092;2023-04-03T12:35:17;10.16;49.09
66586;SHT30;53444;45.822;16.092;2023-04-03T12:38:22;10.08;49.43
66586;SHT30;53444;45.822;16.092;2023-04-03T12:40:58;9.84;50.04
66586;SHT30;53444;45.822;16.092;2023-04-03T12:43:36;9.62;50.88
66586;SHT30;53444;45.822;16.092;2023-04-03T12:46:11;9.67;50.95
66586;SHT30;53444;45.822;16.092;2023-04-03T12:48:47;9.77;51.12
66586;SHT30;53444;45.822;16.092;2023-04-03T12:51:38;9.82;49.73
66586;SHT30;53444;45.822;16.092;2023-04-03T12:54:15;9.71;49.45
66586;SHT30;53444;45.822;16.092;2023-04-03T12:56:42;9.95;48.95
66586;SHT30;53444;45.822;16.092;2023-04-03T12:59:14;9.88;48.58
66586;SHT30;53444;45.822;16.092;2023-04-03T13:01:41;11.03;46.43
66586;SHT30;53444;45.822;16.092;2023-04-03T13:04:10;11.48;45.20
66586;SHT30;53444;45.822;16.092;2023-04-03T13:06:41;11.85;43.20
66586;SHT30;53444;45.822;16.092;2023-04-03T13:09:19;11.22;43.75
66586;SHT30;53444;45.822;16.092;2023-04-03T13:11:49;10.63;44.92
66586;SHT30;53444;45.822;16.092;2023-04-03T13:14:18;11.22;43.75
66586;SHT30;53444;45.822;16.092;2023-04-03T13:16:53;11.70;43.59
66586;SHT30;53444;45.822;16.092;2023-04-03T13:19:23;12.77;41.91
66586;SHT30;53444;45.822;16.092;2023-04-03T13:21:54;13.20;39.81
66586;SHT30;53444;45.822;16.092;2023-04-03T13:24:23;13.95;40.08
66586;SHT30;53444;45.822;16.092;2023-04-03T13:26:50;13.94;39.84
66586;SHT30;53444;45.822;16.092;2023-04-03T13:29:22;12.45;42.64
66586;SHT30;53444;45.822;16.092;2023-04-03T13:31:52;11.52;44.37
66586;SHT30;53444;45.822;16.092;2023-04-03T13:34:20;11.14;45.82
66586;SHT30;53444;45.822;16.092;2023-04-03T13:36:57;10.73;46.86
66586;SHT30;53444;45.822;16.092;2023-04-03T13:39:27;10.74;47.08
66586;SHT30;53444;45.822;16.092;2023-04-03T13:41:56;10.97;46.35
66586;SHT30;53444;45.822;16.092;2023-04-03T13:44:34;10.87;44.67
66586;SHT30;53444;45.822;16.092;2023-04-03T13:47:16;11.94;42.99
66586;SHT30;53444;45.822;16.092;2023-04-03T13:49:45;12.44;42.57
66586;SHT30;53444;45.822;16.092;2023-04-03T13:52:24;13.32;40.82
66586;SHT30;53444;45.822;16.092;2023-04-03T13:54:55;13.32;40.76
66586;SHT30;53444;45.822;16.092;2023-04-03T13:57:22;13.40;40.49
66586;SHT30;53444;45.822;16.092;2023-04-03T13:59:49;12.88;41.79
66586;SHT30;53444;45.822;16.092;2023-04-03T14:02:19;12.77;41.80
66586;SHT30;53444;45.822;16.092;2023-04-03T14:04:51;13.33;39.75
66586;SHT30;53444;45.822;16.092;2023-04-03T14:07:23;12.68;40.67
66586;SHT30;53444;45.822;16.092;2023-04-03T14:09:50;12.98;40.78
66586;SHT30;53444;45.822;16.092;2023-04-03T14:12:20;12.29;41.00
66586;SHT30;53444;45.822;16.092;2023-04-03T14:14:48;13.22;40.35
66586;SHT30;53444;45.822;16.092;2023-04-03T14:17:17;13.30;39.48
66586;SHT30;53444;45.822;16.092;2023-04-03T14:19:45;12.65;41.29
66586;SHT30;53444;45.822;16.092;2023-04-03T14:22:15;13.22;40.41
66586;SHT30;53444;45.822;16.092;2023-04-03T14:24:50;12.36;41.64
66586;SHT30;53444;45.822;16.092;2023-04-03T14:27:20;11.70;42.89
66586;SHT30;53444;45.822;16.092;2023-04-03T14:29:47;11.27;44.18
66586;SHT30;53444;45.822;16.092;2023-04-03T14:32:16;12.30;41.06
66586;SHT30;53444;45.822;16.092;2023-04-03T14:34:43;12.65;40.66
66586;SHT30;53444;45.822;16.092;2023-04-03T14:37:12;13.88;38.44
66586;SHT30;53444;45.822;16.092;2023-04-03T14:39:39;14.21;36.61
66586;SHT30;53444;45.822;16.092;2023-04-03T14:42:12;15.14;35.78
66586;SHT30;53444;45.822;16.092;2023-04-03T14:44:39;14.63;36.71
66586;SHT30;53444;45.822;16.092;2023-04-03T14:47:09;14.22;36.08
66586;SHT30;53444;45.822;16.092;2023-04-03T14:49:36;14.51;36.11
66586;SHT30;53444;45.822;16.092;2023-04-03T14:52:03;14.42;35.38
66586;SHT30;53444;45.822;16.092;2023-04-03T14:54:30;15.61;34.50
66586;SHT30;53444;45.822;16.092;2023-04-03T15:00:19;17.15;32.12
66586;SHT30;53444;45.822;16.092;2023-04-03T15:02:47;16.63;32.06
66586;SHT30;53444;45.822;16.092;2023-04-03T15:05:15;16.23;31.95
66586;SHT30;53444;45.822;16.092;2023-04-03T15:07:44;17.32;30.97
66586;SHT30;53444;45.822;16.092;2023-04-03T15:10:18;16.64;31.76
66586;SHT30;53444;45.822;16.092;2023-04-03T15:12:46;16.12;31.88
66586;SHT30;53444;45.822;16.092;2023-04-03T15:15:15;15.85;32.36
66586;SHT30;53444;45.822;16.092;2023-04-03T15:17:42;16.57;31.48
66586;SHT30;53444;45.822;16.092;2023-04-03T15:20:14;16.92;31.71
66586;SHT30;53444;45.822;16.092;2023-04-03T15:22:42;16.95;31.57
66586;SHT30;53444;45.822;16.092;2023-04-03T15:25:09;17.03;31.18
66586;SHT30;53444;45.822;16.092;2023-04-03T15:27:36;15.69;33.06
66586;SHT30;53444;45.822;16.092;2023-04-03T15:30:04;13.53;35.09
66586;SHT30;53444;45.822;16.092;2023-04-03T15:32:32;14.65;33.83
66586;SHT30;53444;45.822;16.092;2023-04-03T15:35:00;15.34;32.72
66586;SHT30;53444;45.822;16.092;2023-04-03T15:37:27;16.08;31.17
66586;SHT30;53444;45.822;16.092;2023-04-03T15:39:54;15.74;30.78
66586;SHT30;53444;45.822;16.092;2023-04-03T15:42:25;16.52;30.37
66586;SHT30;53444;45.822;16.092;2023-04-03T15:44:54;16.37;30.57
66586;SHT30;53444;45.822;16.092;2023-04-03T15:47:24;16.33;30.58
66586;SHT30;53444;45.822;16.092;2023-04-03T15:49:52;16.30;31.38
66586;SHT30;53444;45.822;16.092;2023-04-03T15:52:19;16.09;31.01
66586;SHT30;53444;45.822;16.092;2023-04-03T15:54:46;15.65;31.59
66586;SHT30;53444;45.822;16.092;2023-04-03T15:57:31;15.24;31.84
66586;SHT30;53444;45.822;16.092;2023-04-03T15:59:58;14.48;33.27
66586;SHT30;53444;45.822;16.092;2023-04-03T16:02:25;15.41;32.05
66586;SHT30;53444;45.822;16.092;2023-04-03T16:04:55;15.24;32.39
66586;SHT30;53444;45.822;16.092;2023-04-03T16:07:36;14.99;32.19
66586;SHT30;53444;45.822;16.092;2023-04-03T16:10:04;14.34;32.69
66586;SHT30;53444;45.822;16.092;2023-04-03T16:12:34;14.28;32.99
66586;SHT30;53444;45.822;16.092;2023-04-03T16:15:01;13.88;33.57